Latest Weather Observations for Laverton

IDV60801

Issued at 2:52 pm EDT Thursday 13 December 2018 (issued every 10 minutes, with the page automatically refreshed every 10 minutes)

About weather observations | Map of weather stations | Latest weather observations for VIC | Other Formats
Station Details ID: 087031 Name: LAVERTON RAAF Lat: -37.86 Lon: 144.76 Height: 20.1 m
Data from the previous 72 hours. | See also: Recent months at Laverton
Date/Time
EDT
Temp
°C
App
Temp
°C
Dew
Point
°C
Rel
Hum
%
Delta-T
°C
Wind Press
QNH
hPa
Press
MSL
hPa
Rain since
9am
mm
Dir  Spd
km/h
Gust
km/h
Spd
kts
Gust
kts
13/02:30pm 18.0 16.8 16.2 89 1.1 SE 17 24 9 13 998.0 998.0 16.8
13/02:00pm 17.5 16.4 17.3 99 0.1 SSE 19 28 10 15 998.4 998.4 16.8
13/01:30pm 16.9 15.5 16.9 100 0.0 S 20 32 11 17 998.4 998.4 16.8
13/01:09pm 16.3 13.5 16.3 100 0.0 S 26 37 14 20 997.6 997.6 16.8
13/01:00pm 16.6 14.3 16.6 100 0.0 SSW 24 32 13 17 998.1 998.1 16.8
13/12:30pm 16.0 15.2 16.0 100 0.0 SSW 15 22 8 12 999.8 999.8 14.2
13/12:27pm 16.0 15.5 16.0 100 0.0 SW 13 19 7 10 999.9 999.9 13.8
13/12:15pm 15.9 14.6 15.7 99 0.1 SW 17 24 9 13 1000.2 1000.2 12.0
13/12:00pm 16.2 14.6 16.0 99 0.1 W 19 32 10 17 1000.3 1000.3 10.2
13/11:39am 16.9 16.0 15.9 94 0.6 W 15 24 8 13 1000.0 1000.0 4.4
13/11:30am 17.0 15.2 15.5 91 0.9 SW 19 30 10 16 999.2 999.2 3.6
13/11:00am 17.5 14.7 15.3 87 1.3 SSW 24 35 13 19 998.4 998.4 3.2
13/10:30am 17.3 14.6 16.7 96 0.4 S 26 35 14 19 998.0 998.0 3.2
13/10:00am 16.8 14.5 16.6 99 0.1 SSW 24 41 13 22 998.9 998.9 3.0
13/09:59am 16.7 14.3 16.5 99 0.1 SSW 24 41 13 22 998.9 998.9 3.0
13/09:30am 16.8 15.8 16.6 99 0.1 SW 17 30 9 16 998.9 998.9 1.6
13/09:23am 16.9 15.9 16.7 99 0.1 SW 17 24 9 13 998.9 998.9 1.0
13/09:00am 16.9 16.3 16.7 99 0.1 SW 15 26 8 14 998.7 998.7 20.6
13/08:47am 16.7 15.3 16.5 99 0.1 SW 19 24 10 13 998.6 998.6 20.2
13/08:30am 16.7 15.3 16.5 99 0.1 WSW 19 30 10 16 998.7 998.7 19.6
13/08:00am 16.5 14.1 16.3 99 0.1 W 24 35 13 19 998.3 998.3 16.6
13/07:53am 16.6 14.2 16.4 99 0.1 W 24 35 13 19 998.3 998.3 15.4
13/07:44am 16.7 14.7 16.5 99 0.1 W 22 35 12 19 998.2 998.2 15.0
13/07:30am 17.0 15.5 16.8 99 0.1 W 20 30 11 16 998.1 998.1 14.4
13/07:00am 18.4 18.5 18.4 100 0.0 W 15 24 8 13 998.0 998.0 11.6
13/06:53am 18.4 19.2 18.2 99 0.1 WNW 11 13 6 7 998.1 998.1 9.2
13/06:38am 18.5 18.9 18.2 98 0.2 WNW 13 20 7 11 997.9 997.9 8.0
13/06:30am 18.6 18.9 17.9 96 0.4 NNW 13 20 7 11 998.0 998.0 4.8
13/06:14am 19.1 19.7 17.6 91 0.9 WSW 11 17 6 9 997.8 997.8 1.2
13/06:00am 19.1 19.9 17.4 90 1.0 WNW 9 13 5 7 997.6 997.6 0.4
13/05:30am 19.0 19.9 17.5 91 0.9 NW 9 13 5 7 997.8 997.8 0.2
13/05:00am 18.8 20.1 17.1 90 1.0 ENE 6 7 3 4 997.8 997.8 0.2
13/04:30am 18.6 19.8 17.4 93 0.7 ESE 7 9 4 5 997.5 997.5 0.2
13/04:00am 18.3 19.0 17.0 92 0.8 E 9 11 5 6 997.6 997.6 0.2
13/03:30am 19.0 20.3 17.1 89 1.2 WNW 6 9 3 5 998.3 998.3 0.2
13/03:00am 19.2 20.3 17.2 88 1.2 NW 7 9 4 5 998.7 998.7 0.2
13/02:30am 19.6 20.7 16.6 83 1.8 NNE 6 11 3 6 998.9 998.9 0.2
13/02:00am 20.2 21.1 16.6 80 2.2 NNE 7 11 4 6 999.2 999.2 0.2
13/01:30am 20.3 20.9 16.9 81 2.1 NE 9 13 5 7 999.6 999.6 0.2
13/01:00am 20.4 21.1 17.0 81 2.1 NNE 9 11 5 6 1000.1 1000.1 0.2
13/12:30am 20.4 20.6 16.8 80 2.2 NE 11 13 6 7 1000.8 1000.8 0.2
13/12:00am 20.3 21.1 17.3 83 1.8 N 9 13 5 7 1001.4 1001.4 0.2
 
Date/Time
EDT
Temp
°C
App
Temp
°C
Dew
Point
°C
Rel
Hum
%
Delta-T
°C
Wind Press
QNH
hPa
Press
MSL
hPa
Rain since
9am
mm
Dir  Spd
km/h
Gust
km/h
Spd
kts
Gust
kts
12/11:30pm 20.4 20.9 17.4 83 1.8 E 11 15 6 8 1001.9 1001.9 0.2
12/11:00pm 21.0 21.7 17.0 78 2.5 WSW 9 13 5 7 1002.5 1002.5 0.0
12/10:30pm 21.0 21.5 16.6 76 2.7 W 9 13 5 7 1003.3 1003.3 0.0
12/10:00pm 21.4 21.2 15.7 70 3.4 S 11 17 6 9 1003.1 1003.1 0.0
12/09:30pm 22.2 20.7 15.3 65 4.1 WSW 17 28 9 15 1003.0 1003.0 0.0
12/09:00pm 22.1 19.0 15.7 67 3.9 SW 26 35 14 19 1002.8 1002.8 0.0
12/08:30pm 22.8 20.5 15.6 64 4.3 WSW 22 32 12 17 1003.3 1003.3 0.0
12/08:00pm 24.2 19.6 15.1 56 5.5 WSW 33 48 18 26 1002.8 1002.8 0.0
12/07:33pm 26.2 22.2 14.0 47 7.2 WSW 28 48 15 26 1002.6 1002.6 0.0
12/07:30pm 26.5 22.7 13.6 45 7.6 WSW 26 41 14 22 1002.5 1002.5 0.0
12/07:23pm 26.9 24.1 13.3 43 8.0 W 20 41 11 22 1002.4 1002.4 0.0
12/07:00pm 32.0 29.2 10.1 26 12.6 N 15 26 8 14 1001.6 1001.6 0.0
12/06:30pm 32.3 29.1 9.8 25 12.8 N 17 28 9 15 1001.1 1001.1 0.0
12/06:00pm 32.3 28.5 9.2 24 13.1 NNE 19 28 10 15 1001.2 1001.2 0.0
12/05:30pm 33.8 28.7 9.1 22 14.0 NE 26 37 14 20 1001.3 1001.3 0.0
12/05:00pm 32.8 29.1 9.6 24 13.3 NE 19 33 10 18 1001.7 1001.7 0.0
12/04:30pm 34.0 30.2 9.9 23 13.9 NNE 20 35 11 19 1002.3 1002.3 0.0
12/04:00pm 34.4 30.2 9.6 22 14.3 NNE 22 33 12 18 1003.3 1003.3 0.0
12/03:30pm 34.0 29.7 9.3 22 14.1 NNE 22 39 12 21 1003.8 1003.8 0.0
12/03:00pm 34.7 29.4 6.9 18 15.4 NNE 24 35 13 19 1004.5 1004.5 0.0
12/02:30pm 34.5 29.4 7.5 19 15.0 NNE 24 37 13 20 1005.0 1005.0 0.0
12/02:00pm 33.7 28.9 10.3 24 13.6 NNE 26 39 14 21 1005.5 1005.5 0.0
12/01:30pm 32.8 27.2 8.9 23 13.5 N 28 41 15 22 1005.9 1005.9 0.0
12/01:00pm 32.4 27.4 12.1 29 12.0 NNE 30 43 16 23 1006.3 1006.3 0.0
12/12:30pm 32.2 27.5 11.9 29 11.9 N 28 44 15 24 1007.0 1007.0 0.0
12/12:17pm 32.5 28.0 12.7 30 11.8 N 28 46 15 25 1007.2 1007.2 0.0
12/12:00pm 31.6 27.0 12.4 31 11.4 N 28 43 15 23 1007.4 1007.4 0.0
12/11:35am 31.4 26.9 12.7 32 11.1 N 28 46 15 25 1007.7 1007.7 0.0
12/11:30am 31.2 26.5 12.1 31 11.2 N 28 44 15 24 1007.8 1007.8 0.0
12/11:10am 30.3 25.0 13.1 34 10.2 N 33 56 18 30 1007.8 1007.8 0.0
12/11:00am 30.4 25.2 12.8 34 10.4 N 32 46 17 25 1007.9 1007.9 0.0
12/10:43am 29.7 25.8 14.3 39 9.3 N 28 48 15 26 1008.0 1008.0 0.0
12/10:30am 29.8 26.7 15.5 42 8.8 N 26 41 14 22 1008.2 1008.2 0.0
12/10:00am 28.3 24.7 15.2 44 8.0 N 28 41 15 22 1008.6 1008.6 0.0
12/09:30am 27.2 24.5 15.6 49 7.1 N 24 41 13 22 1009.0 1009.0 0.0
12/09:00am 25.2 22.3 15.2 54 6.0 N 24 39 13 21 1009.4 1009.4 0.0
12/08:30am 22.6 21.5 15.2 63 4.4 NE 15 22 8 12 1009.7 1009.7 0.0
12/08:00am 19.4 19.2 14.6 74 2.8 ENE 9 11 5 6 1010.1 1010.1 0.0
12/07:30am 17.9 17.5 14.2 79 2.1 NE 9 13 5 7 1010.2 1010.2 0.0
12/07:00am 16.1 16.1 14.3 89 1.0 NE 7 11 4 6 1010.4 1010.4 0.0
12/06:30am 14.4 14.7 13.4 94 0.6 N 4 7 2 4 1010.6 1010.6 0.0
12/06:00am 14.1 13.8 13.3 95 0.4 N 7 9 4 5 1010.5 1010.5 0.0
12/05:30am 14.1 13.8 13.3 95 0.4 N 7 9 4 5 1010.5 1010.5 0.0
12/05:00am 14.0 13.4 13.4 96 0.3 N 9 11 5 6 1010.7 1010.7 0.0
12/04:30am 13.7 12.9 12.9 95 0.4 NNW 9 11 5 6 1010.9 1010.9 0.0
12/04:00am 13.9 13.1 13.0 94 0.5 NNW 9 9 5 5 1010.9 1010.9 0.0
12/03:30am 14.1 12.6 13.0 93 0.6 NW 13 15 7 8 1011.0 1011.0 0.0
12/03:00am 14.3 12.8 13.0 92 0.7 NW 13 17 7 9 1011.1 1011.1 0.0
12/02:30am 14.2 12.9 12.6 90 0.9 NW 11 13 6 7 1011.1 1011.1 0.0
12/02:00am 14.3 13.4 12.5 89 1.0 NW 9 11 5 6 1011.4 1011.4 0.0
12/01:30am 14.7 13.4 12.6 87 1.1 NW 11 13 6 7 1011.9 1011.8 0.0
12/01:00am 15.1 14.1 12.4 84 1.5 NNW 9 13 5 7 1012.2 1012.1 0.0
12/12:30am 16.9 16.9 13.6 81 1.9 SE 6 9 3 5 1012.7 1012.6 0.0
12/12:00am 16.9 16.3 13.4 80 2.0 SSW 9 13 5 7 1013.0 1012.9 0.0
 
Date/Time
EDT
Temp
°C
App
Temp
°C
Dew
Point
°C
Rel
Hum
%
Delta-T
°C
Wind Press
QNH
hPa
Press
MSL
hPa
Rain since
9am
mm
Dir  Spd
km/h
Gust
km/h
Spd
kts
Gust
kts
11/11:30pm 16.9 17.0 12.8 77 2.3 S 4 7 2 4 1013.3 1013.2 0.0
11/11:00pm 17.8 16.9 13.7 77 2.3 SW 11 15 6 8 1013.6 1013.5 0.0
11/10:30pm 18.0 16.8 14.1 78 2.2 WSW 13 19 7 10 1014.0 1013.9 0.0
11/10:00pm 18.5 17.4 14.4 77 2.4 WSW 13 17 7 9 1014.0 1013.9 0.0
11/09:30pm 18.8 18.6 14.7 77 2.4 SW 9 15 5 8 1013.8 1013.7 0.0
11/09:00pm 19.4 18.1 14.9 75 2.6 SW 15 22 8 12 1013.8 1013.7 0.0
11/08:30pm 20.0 18.4 15.0 73 2.9 SW 17 24 9 13 1013.6 1013.5 0.0
11/08:00pm 20.8 18.8 14.9 69 3.5 SW 19 28 10 15 1013.7 1013.6 0.0
11/07:30pm 21.5 19.3 14.9 66 3.9 SSW 20 28 11 15 1013.6 1013.5 0.0
11/07:00pm 21.6 18.6 14.7 65 4.1 SSW 24 33 13 18 1013.7 1013.6 0.0
11/06:30pm 22.0 18.9 14.4 62 4.5 SSW 24 32 13 17 1013.6 1013.5 0.0
11/06:00pm 22.4 18.9 14.5 61 4.6 SSW 26 33 14 18 1013.7 1013.6 0.0
11/05:30pm 22.1 19.1 14.7 63 4.4 S 24 35 13 19 1013.7 1013.6 0.0
11/05:00pm 22.3 19.0 13.9 59 4.9 S 24 37 13 20 1013.9 1013.8 0.0
11/04:30pm 22.9 19.2 13.9 57 5.3 S 26 33 14 18 1014.4 1014.3 0.0
11/04:00pm 22.7 19.6 13.5 56 5.3 S 22 32 12 17 1014.6 1014.5 0.0
11/03:30pm 22.8 19.3 12.1 51 6.1 S 22 33 12 18 1015.2 1015.1 0.0
11/03:00pm 22.9 19.7 11.9 50 6.2 S 20 30 11 16 1015.6 1015.5 0.0
11/02:30pm 22.8 19.8 12.1 51 6.1 SSE 19 28 10 15 1015.8 1015.7 0.0
11/02:00pm 22.0 18.9 11.7 52 5.8 SSE 19 24 10 13 1016.2 1016.1 0.0
11/01:30pm 22.1 19.3 11.2 50 6.0 SSE 17 30 9 16 1016.7 1016.6 0.0
11/01:00pm 21.1 18.3 11.2 53 5.5 SE 17 26 9 14 1016.9 1016.8 0.0
11/12:30pm 20.8 18.0 11.4 55 5.2 SSE 17 24 9 13 1017.2 1017.1 0.0
11/12:00pm 20.0 17.6 11.5 58 4.7 SE 15 24 8 13 1017.7 1017.6 0.0
11/11:30am 18.9 16.2 10.5 58 4.5 SSE 15 24 8 13 1018.1 1018.0 0.0
11/11:00am 19.2 16.6 10.7 58 4.6 SE 15 22 8 12 1018.5 1018.4 0.0
11/10:30am 17.9 15.2 10.3 61 4.1 SSE 15 20 8 11 1018.6 1018.5 0.0
11/10:00am 17.3 14.6 10.4 64 3.7 SSE 15 26 8 14 1018.7 1018.6 0.0
11/09:30am 16.7 14.0 10.3 66 3.4 SSE 15 22 8 12 1018.7 1018.6 0.0
11/09:00am 16.8 14.4 10.2 65 3.5 SE 13 17 7 9 1018.5 1018.4 0.0
11/08:30am 15.9 13.1 10.0 68 3.1 SSE 15 22 8 12 1018.6 1018.5 0.0
11/08:00am 16.3 13.9 9.9 66 3.3 SE 13 20 7 11 1018.3 1018.2 0.0
11/07:30am 16.1 13.9 10.8 71 2.8 SSE 13 17 7 9 1018.4 1018.3 0.0
11/07:00am 14.6 12.6 10.0 74 2.4 SSE 11 13 6 7 1018.3 1018.2 0.0
11/06:30am 14.1 12.0 9.7 75 2.3 SSE 11 15 6 8 1018.3 1018.2 0.0
11/06:00am 14.0 11.9 9.8 76 2.2 SE 11 15 6 8 1018.1 1018.0 0.0
11/05:30am 14.6 12.2 10.2 75 2.3 SSE 13 17 7 9 1017.9 1017.8 0.0
11/05:00am 15.0 12.9 11.0 77 2.1 SE 13 17 7 9 1017.9 1017.8 0.0
11/04:30am 15.0 12.9 11.2 78 2.0 SE 13 20 7 11 1017.8 1017.7 0.0
11/04:00am 14.7 13.4 11.1 79 1.9 SSE 9 13 5 7 1018.1 1018.0 0.0
11/03:30am 15.0 13.7 11.4 79 1.9 SSE 9 13 5 7 1018.2 1018.1 0.0
11/03:00am 15.0 13.9 11.8 81 1.7 SSE 9 13 5 7 1018.5 1018.4 0.0
11/02:30am 14.7 13.0 11.3 80 1.8 SSE 11 15 6 8 1018.7 1018.6 0.0
11/02:00am 14.6 13.3 11.2 80 1.8 S 9 13 5 7 1019.0 1018.9 0.0
11/01:30am 15.0 13.0 11.4 79 1.9 SSE 13 17 7 9 1019.3 1019.2 0.0
11/01:00am 15.5 14.4 11.9 79 1.9 SSE 9 13 5 7 1019.6 1019.5 0.0
11/12:30am 15.1 13.9 11.5 79 1.9 SSE 9 11 5 6 1019.9 1019.8 0.0
11/12:00am 15.3 14.1 11.5 78 2.0 SSE 9 13 5 7 1020.0 1019.9 0.0
 
Date/Time
EDT
Temp
°C
App
Temp
°C
Dew
Point
°C
Rel
Hum
%
Delta-T
°C
Wind Press
QNH
hPa
Press
MSL
hPa
Rain since
9am
mm
Dir  Spd
km/h
Gust
km/h
Spd
kts
Gust
kts
10/11:30pm 15.4 13.9 11.8 79 1.9 SSE 11 19 6 10 1020.0 1019.9 0.0
10/11:00pm 15.6 13.3 11.8 78 2.1 SSE 15 19 8 10 1019.8 1019.7 0.0
10/10:30pm 15.7 13.3 11.5 76 2.3 S 15 19 8 10 1020.0 1019.9 0.0
10/10:00pm 15.8 13.3 11.2 74 2.5 S 15 20 8 11 1020.0 1019.9 0.0
10/09:30pm 16.0 13.5 11.2 73 2.6 S 15 22 8 12 1020.1 1020.0 0.0
10/09:00pm 16.1 13.3 11.5 74 2.5 S 17 26 9 14 1020.0 1019.9 0.0
10/08:30pm 16.6 13.4 11.3 71 2.9 S 19 24 10 13 1019.8 1019.7 0.0
10/08:00pm 17.4 14.0 11.2 67 3.3 S 20 30 11 16 1019.5 1019.4 0.0
10/07:30pm 17.9 14.1 11.0 64 3.7 S 22 30 12 16 1019.4 1019.3 0.0
10/07:00pm 18.4 14.6 11.2 63 3.9 S 22 32 12 17 1019.1 1019.0 0.0
10/06:30pm 18.5 14.4 11.3 63 3.9 S 24 32 13 17 1019.0 1018.9 0.0
10/06:00pm 18.8 14.7 11.4 62 4.0 S 24 32 13 17 1018.9 1018.8 0.0
10/05:30pm 19.4 15.1 10.7 57 4.7 SSE 24 33 13 18 1018.8 1018.7 0.0
10/05:00pm 19.5 15.0 10.2 55 5.0 SSE 24 33 13 18 1018.9 1018.8 0.0
10/04:30pm 20.1 15.3 8.8 48 5.9 SSE 24 30 13 16 1019.0 1018.9 0.0
10/04:00pm 19.9 15.1 10.3 54 5.2 S 26 33 14 18 1019.2 1019.1 0.0
10/03:30pm 20.1 15.6 10.2 53 5.3 SSE 24 33 13 18 1019.2 1019.1 0.0
10/03:00pm 20.2 16.2 10.3 53 5.3 SSE 22 32 12 17 1019.3 1019.2 0.0

Other Formats:

Comma delimited format used in spreadsheet applications
http://www.bom.gov.au/fwo/IDV60801/IDV60801.94865.axf

JavaScript Object Notation format (JSON) in row-major order
http://www.bom.gov.au/fwo/IDV60801/IDV60801.94865.json